createdAt,value
2022-12-13T00:02:56.063Z,7.60
2022-12-13T00:08:00.138Z,8.13
2022-12-13T00:13:02.642Z,8.30
2022-12-13T00:18:05.054Z,9.63
2022-12-13T00:23:07.445Z,8.53
2022-12-13T00:28:10.049Z,7.63
2022-12-13T00:33:12.493Z,7.07
2022-12-13T00:38:14.898Z,7.77
2022-12-13T00:43:17.996Z,6.43
2022-12-13T00:48:20.380Z,7.80
2022-12-13T00:53:22.844Z,6.80
2022-12-13T00:58:25.329Z,7.10
2022-12-13T01:03:27.775Z,6.70
2022-12-13T01:08:30.257Z,7.03
2022-12-13T01:13:32.890Z,6.27
2022-12-13T01:18:36.816Z,6.13
2022-12-13T01:23:39.951Z,9.13
2022-12-13T01:28:42.971Z,14.10
2022-12-13T01:33:45.654Z,5.97
2022-12-13T01:38:48.088Z,7.33
2022-12-13T01:43:53.593Z,6.63
2022-12-13T01:49:02.419Z,6.47
2022-12-13T01:54:09.626Z,7.43
2022-12-13T01:59:13.371Z,14.40
2022-12-13T02:04:20.859Z,10.60
2022-12-13T02:09:23.763Z,7.13
2022-12-13T02:14:26.163Z,6.83
2022-12-13T02:19:43.931Z,6.90
2022-12-13T02:25:05.364Z,10.27
2022-12-13T02:30:23.165Z,10.93
2022-12-13T02:35:39.229Z,9.23
2022-12-13T02:40:53.717Z,7.10
2022-12-13T02:46:00.942Z,7.13
2022-12-13T02:51:05.959Z,6.50
2022-12-13T02:56:08.702Z,9.23
2022-12-13T03:01:29.819Z,47.20
2022-12-13T03:06:53.930Z,10.20
2022-12-13T03:12:41.204Z,7.50
2022-12-13T03:18:06.502Z,7.27
2022-12-13T03:23:11.141Z,8.93
2022-12-13T03:28:13.658Z,8.23
2022-12-13T03:33:16.116Z,7.90
2022-12-13T03:38:22.395Z,7.47
2022-12-13T03:43:25.734Z,8.50
2022-12-13T03:48:28.211Z,8.53
2022-12-13T03:53:32.599Z,9.23
2022-12-13T03:58:38.247Z,8.37
2022-12-13T04:03:43.404Z,7.83
2022-12-13T04:08:45.836Z,7.83
2022-12-13T04:13:48.418Z,10.20
2022-12-13T04:18:50.859Z,8.57
2022-12-13T04:23:53.373Z,8.13
2022-12-13T04:28:56.030Z,7.07
2022-12-13T04:33:58.419Z,7.43
2022-12-13T04:39:02.601Z,7.30
2022-12-13T04:44:07.534Z,8.97
2022-12-13T04:49:30.727Z,8.67
2022-12-13T04:54:36.467Z,8.10
2022-12-13T04:59:40.674Z,9.60
2022-12-13T05:04:45.088Z,9.50
2022-12-13T05:09:47.452Z,7.90
2022-12-13T05:14:50.166Z,9.30
2022-12-13T05:19:52.566Z,8.47
2022-12-13T05:24:54.977Z,10.23
2022-12-13T05:30:02.727Z,8.70
2022-12-13T05:35:07.561Z,10.03
2022-12-13T05:40:10.729Z,9.67
2022-12-13T05:45:13.628Z,9.13
2022-12-13T05:50:17.370Z,8.40
2022-12-13T05:55:20.568Z,9.80
2022-12-13T06:00:28.871Z,8.60
2022-12-13T06:05:32.991Z,16.63
2022-12-13T06:10:35.633Z,9.33
2022-12-13T06:15:38.535Z,9.90
2022-12-13T06:20:58.153Z,11.53
2022-12-13T06:26:03.660Z,8.87
2022-12-13T06:31:06.167Z,11.67
2022-12-13T06:36:09.126Z,9.23
2022-12-13T06:41:14.645Z,8.50
2022-12-13T06:46:17.124Z,7.30
2022-12-13T06:51:23.108Z,7.13
2022-12-13T06:56:34.709Z,7.77
2022-12-13T07:01:37.888Z,7.63
2022-12-13T07:06:40.451Z,7.27
2022-12-13T07:11:44.686Z,8.20
2022-12-13T07:16:50.863Z,9.07
2022-12-13T07:21:53.274Z,14.63
2022-12-13T07:27:04.044Z,9.83
2022-12-13T07:32:06.562Z,8.57
2022-12-13T07:37:09.587Z,11.03
2022-12-13T07:42:35.781Z,15.67
2022-12-13T07:47:38.814Z,11.00
2022-12-13T07:52:42.453Z,8.00
2022-12-13T07:57:45.203Z,8.77
2022-12-13T08:02:49.191Z,19.20
2022-12-13T08:07:51.706Z,25.40
2022-12-13T08:12:57.635Z,32.33
2022-12-13T08:18:02.133Z,28.93
2022-12-13T08:23:04.684Z,26.23
2022-12-13T08:28:07.144Z,16.97
2022-12-13T08:33:09.525Z,16.60
2022-12-13T08:38:12.104Z,61.20
2022-12-13T08:43:14.528Z,11.37
2022-12-13T08:48:16.971Z,10.83
2022-12-13T08:53:28.421Z,11.03
2022-12-13T08:58:32.829Z,24.33
2022-12-13T09:03:36.305Z,20.80
2022-12-13T09:08:39.629Z,26.97
2022-12-13T09:13:43.811Z,22.03
2022-12-13T09:18:47.252Z,25.33
2022-12-13T09:24:01.973Z,15.50
2022-12-13T09:29:10.347Z,12.53
2022-12-13T09:34:15.260Z,10.90
2022-12-13T09:39:17.699Z,12.00
2022-12-13T09:44:42.754Z,16.50
2022-12-13T09:49:52.644Z,11.47
2022-12-13T09:55:00.170Z,11.13
2022-12-13T10:00:07.139Z,11.00
2022-12-13T10:05:37.275Z,11.40
2022-12-13T10:10:43.066Z,9.60
2022-12-13T10:16:13.338Z,15.30
2022-12-13T10:21:30.346Z,9.10
2022-12-13T10:26:38.012Z,7.67
2022-12-13T10:31:49.476Z,8.70
2022-12-13T10:36:52.494Z,7.37
2022-12-13T10:42:04.495Z,8.40
2022-12-13T10:47:09.828Z,21.63
2022-12-13T10:52:31.933Z,22.87
2022-12-13T10:57:34.666Z,20.53
2022-12-13T11:02:41.754Z,13.30
2022-12-13T11:07:44.622Z,11.50
2022-12-13T11:12:47.989Z,9.00
2022-12-13T11:18:19.141Z,11.03
2022-12-13T11:23:43.307Z,13.40
2022-12-13T11:29:00.858Z,12.33
2022-12-13T11:34:11.141Z,14.07
2022-12-13T11:39:20.340Z,8.20
2022-12-13T11:44:48.251Z,17.73
2022-12-13T11:49:52.407Z,17.67
2022-12-13T11:55:15.343Z,10.43
2022-12-13T12:00:36.610Z,14.37
2022-12-13T12:05:45.735Z,23.63
2022-12-13T12:10:51.450Z,14.17
2022-12-13T12:16:14.221Z,17.03
2022-12-13T12:21:56.458Z,18.13
2022-12-13T12:27:06.526Z,26.53
2022-12-13T12:32:37.196Z,14.30
2022-12-13T12:37:54.534Z,25.70
2022-12-13T12:43:15.325Z,12.50
2022-12-13T12:49:00.730Z,36.77
2022-12-13T12:54:11.888Z,25.07
2022-12-13T12:59:32.330Z,29.90
2022-12-13T13:04:43.054Z,21.97
2022-12-13T13:09:46.013Z,27.47
2022-12-13T13:14:48.442Z,17.83
2022-12-13T13:20:14.359Z,19.07
2022-12-13T13:25:26.150Z,19.30
2022-12-13T13:30:30.164Z,23.23
2022-12-13T13:35:41.219Z,27.20
2022-12-13T13:40:44.037Z,38.70
2022-12-13T13:45:49.462Z,30.00
2022-12-13T13:51:10.764Z,27.07
2022-12-13T13:56:35.805Z,14.63
2022-12-13T14:02:13.549Z,20.53
2022-12-13T14:07:55.931Z,23.77
2022-12-13T14:13:31.877Z,56.63
2022-12-13T14:19:07.748Z,21.63
2022-12-13T14:24:28.423Z,25.60
2022-12-13T14:29:34.673Z,22.87
2022-12-13T14:34:38.339Z,25.10
2022-12-13T14:39:45.289Z,18.63
2022-12-13T14:44:47.764Z,21.93
2022-12-13T14:49:55.146Z,23.37
2022-12-13T14:55:04.602Z,64.60
2022-12-13T15:00:28.199Z,106.13
2022-12-13T15:05:56.275Z,58.83
2022-12-13T15:10:59.845Z,41.37
2022-12-13T15:16:10.828Z,45.13
2022-12-13T15:21:25.012Z,22.73
2022-12-13T15:26:34.248Z,52.87
2022-12-13T15:31:36.838Z,40.73
2022-12-13T15:36:39.493Z,17.70
2022-12-13T15:41:47.369Z,20.60
2022-12-13T15:46:53.237Z,28.50
2022-12-13T15:52:03.738Z,41.90
2022-12-13T15:57:15.421Z,37.77
2022-12-13T16:02:22.423Z,63.80
2022-12-13T16:07:35.914Z,34.10
2022-12-13T16:12:47.664Z,35.43
2022-12-13T16:17:56.723Z,36.57
2022-12-13T16:23:08.771Z,39.00
2022-12-13T16:28:13.492Z,65.57
2022-12-13T16:33:30.352Z,45.87
2022-12-13T16:38:33.409Z,42.70
2022-12-13T16:43:39.645Z,35.53
2022-12-13T16:48:42.868Z,38.43
2022-12-13T16:53:45.586Z,36.60
2022-12-13T16:58:50.388Z,34.77
2022-12-13T17:03:53.137Z,32.93
2022-12-13T17:08:56.939Z,45.73
2022-12-13T17:14:00.178Z,35.60
2022-12-13T17:19:02.542Z,37.33
2022-12-13T17:24:05.159Z,40.53
2022-12-13T17:29:10.881Z,32.43
2022-12-13T17:34:16.982Z,28.43
2022-12-13T17:39:19.480Z,26.90
2022-12-13T17:44:22.015Z,27.20
2022-12-13T17:49:25.129Z,44.03
2022-12-13T17:54:28.716Z,36.60
2022-12-13T17:59:31.107Z,34.77
2022-12-13T18:04:33.491Z,34.23
2022-12-13T18:09:36.299Z,40.13
2022-12-13T18:14:39.185Z,34.33
2022-12-13T18:19:41.566Z,31.10
2022-12-13T18:24:43.957Z,41.50
2022-12-13T18:29:54.891Z,47.43
2022-12-13T18:34:57.960Z,48.40
2022-12-13T18:40:00.330Z,47.97
2022-12-13T18:45:04.045Z,46.80
2022-12-13T18:50:06.718Z,52.23
2022-12-13T18:55:09.572Z,43.33
2022-12-13T19:00:12.339Z,36.90
2022-12-13T19:05:16.733Z,39.90
2022-12-13T19:10:19.528Z,44.40
2022-12-13T19:15:21.939Z,37.57
2022-12-13T19:20:24.316Z,43.97
2022-12-13T19:25:26.830Z,51.17
2022-12-13T19:30:29.183Z,99.63
2022-12-13T19:35:31.910Z,89.13
2022-12-13T19:40:34.546Z,68.10
2022-12-13T19:45:36.932Z,73.63
2022-12-13T19:50:40.851Z,57.23
2022-12-13T19:55:45.427Z,74.83
2022-12-13T20:00:50.883Z,87.90
2022-12-13T20:06:01.120Z,61.40
2022-12-13T20:11:09.802Z,78.70
2022-12-13T20:16:17.658Z,100.37
2022-12-13T20:21:20.200Z,103.13
2022-12-13T20:26:24.954Z,120.07
2022-12-13T20:31:33.595Z,124.60
2022-12-13T20:36:37.141Z,125.97
2022-12-13T20:41:41.214Z,115.40
2022-12-13T20:46:43.649Z,99.53
2022-12-13T20:51:46.080Z,85.63
2022-12-13T20:56:48.465Z,112.60
2022-12-13T21:01:51.033Z,114.13
2022-12-13T21:06:53.538Z,106.63
2022-12-13T21:11:56.879Z,102.13
2022-12-13T21:17:01.569Z,105.67
2022-12-13T21:22:03.997Z,103.93
2022-12-13T21:27:06.427Z,112.67
2022-12-13T21:32:09.055Z,107.97
2022-12-13T21:37:11.642Z,98.23
2022-12-13T21:42:14.013Z,87.37
2022-12-13T21:47:16.382Z,80.43
2022-12-13T21:52:18.718Z,74.93
2022-12-13T21:57:39.699Z,69.07
2022-12-13T22:02:42.185Z,72.87
2022-12-13T22:07:44.700Z,75.73
2022-12-13T22:12:50.997Z,80.67
2022-12-13T22:17:53.438Z,97.17
2022-12-13T22:22:56.241Z,95.67
2022-12-13T22:27:58.654Z,104.40
2022-12-13T22:33:01.082Z,106.63
2022-12-13T22:38:03.537Z,92.60
2022-12-13T22:43:07.723Z,89.33
2022-12-13T22:48:10.423Z,111.97
2022-12-13T22:53:12.831Z,112.27
2022-12-13T22:58:15.323Z,106.03
2022-12-13T23:03:17.974Z,96.67
2022-12-13T23:08:20.464Z,93.93
2022-12-13T23:13:23.245Z,91.07
2022-12-13T23:18:25.917Z,92.73
2022-12-13T23:23:30.038Z,98.63
2022-12-13T23:28:33.059Z,94.43
2022-12-13T23:33:36.799Z,103.33
2022-12-13T23:38:40.072Z,105.80
2022-12-13T23:43:44.395Z,122.17
2022-12-13T23:48:51.093Z,124.17
2022-12-13T23:53:53.905Z,113.70
2022-12-13T23:58:56.715Z,107.80
